createdAt,value
2022-11-29T00:01:19.197Z,101239.63
2022-11-29T00:03:44.277Z,101239.88
2022-11-29T00:06:10.679Z,101247.25
2022-11-29T00:08:34.270Z,101238.31
2022-11-29T00:10:57.862Z,101239.78
2022-11-29T00:13:20.373Z,101246.78
2022-11-29T00:15:44.020Z,101242.44
2022-11-29T00:18:09.250Z,101245.44
2022-11-29T00:20:35.906Z,101244.28
2022-11-29T00:22:59.463Z,101243.84
2022-11-29T00:25:23.041Z,101243.47
2022-11-29T00:27:46.568Z,101241.19
2022-11-29T00:30:11.449Z,101238.38
2022-11-29T00:32:34.936Z,101249.44
2022-11-29T00:34:59.725Z,101247.38
2022-11-29T00:37:25.123Z,101241.78
2022-11-29T00:39:48.684Z,101243.44
2022-11-29T00:42:12.219Z,101235.69
2022-11-29T00:44:35.817Z,101243.22
2022-11-29T00:46:59.328Z,101246.09
2022-11-29T00:49:22.933Z,101235.50
2022-11-29T00:51:46.565Z,101237.84
2022-11-29T00:54:11.504Z,101242.53
2022-11-29T00:56:35.072Z,101246.56
2022-11-29T00:58:58.973Z,101242.06
2022-11-29T01:01:22.663Z,101244.88
2022-11-29T01:03:46.329Z,101245.81
2022-11-29T01:06:13.325Z,101248.31
2022-11-29T01:08:37.127Z,101249.22
2022-11-29T01:11:09.377Z,101248.06
2022-11-29T01:13:33.081Z,101248.66
2022-11-29T01:15:57.705Z,101242.97
2022-11-29T01:18:21.488Z,101243.78
2022-11-29T01:20:45.087Z,101241.19
2022-11-29T01:23:08.650Z,101240.28
2022-11-29T01:25:32.802Z,101235.97
2022-11-29T01:27:57.755Z,101251.31
2022-11-29T01:30:21.460Z,101242.56
2022-11-29T01:32:45.046Z,101247.06
2022-11-29T01:35:09.753Z,101250.06
2022-11-29T01:37:33.654Z,101247.78
2022-11-29T01:39:57.332Z,101251.59
2022-11-29T01:42:21.513Z,101250.16
2022-11-29T01:45:16.955Z,101242.13
2022-11-29T01:47:44.803Z,101245.63
2022-11-29T01:50:10.833Z,101242.41
2022-11-29T01:52:34.760Z,101240.50
2022-11-29T01:55:03.242Z,101240.75
2022-11-29T01:57:27.958Z,101244.47
2022-11-29T01:59:56.440Z,101242.53
2022-11-29T02:02:31.472Z,101246.47
2022-11-29T02:04:55.681Z,101237.06
2022-11-29T02:07:19.354Z,101243.63
2022-11-29T02:09:42.953Z,101243.72
2022-11-29T02:12:23.075Z,101240.50
2022-11-29T02:15:09.855Z,101247.50
2022-11-29T02:17:50.906Z,101241.38
2022-11-29T02:20:53.188Z,101251.50
2022-11-29T02:23:58.781Z,101250.69
2022-11-29T02:26:43.736Z,101252.59
2022-11-29T02:29:51.878Z,101249.91
2022-11-29T02:33:13.868Z,101253.91
2022-11-29T02:36:17.624Z,101258.94
2022-11-29T02:39:08.875Z,101258.19
2022-11-29T02:41:51.810Z,101264.84
2022-11-29T02:44:50.170Z,101259.28
2022-11-29T02:47:28.693Z,101262.31
2022-11-29T02:50:19.683Z,101257.00
2022-11-29T02:52:54.388Z,101258.63
2022-11-29T02:55:34.527Z,101263.63
2022-11-29T02:58:05.478Z,101257.19
2022-11-29T03:00:29.707Z,101264.56
2022-11-29T03:03:05.384Z,101261.03
2022-11-29T03:05:42.386Z,101265.56
2022-11-29T03:08:18.356Z,101263.19
2022-11-29T03:10:56.967Z,101268.44
2022-11-29T03:13:35.690Z,101272.00
2022-11-29T03:16:04.616Z,101271.44
2022-11-29T03:18:39.690Z,101271.72
2022-11-29T03:21:17.429Z,101272.72
2022-11-29T03:23:47.304Z,101279.00
2022-11-29T03:26:15.664Z,101275.44
2022-11-29T03:28:46.174Z,101280.63
2022-11-29T03:31:17.713Z,101278.41
2022-11-29T03:33:52.831Z,101277.41
2022-11-29T03:36:29.134Z,101287.16
2022-11-29T03:38:54.153Z,101285.41
2022-11-29T03:41:26.056Z,101287.50
2022-11-29T03:43:57.104Z,101291.38
2022-11-29T03:46:30.860Z,101289.09
2022-11-29T03:49:03.149Z,101294.72
2022-11-29T03:51:39.074Z,101294.31
2022-11-29T03:54:09.716Z,101288.63
2022-11-29T03:56:36.329Z,101289.22
2022-11-29T03:59:13.423Z,101289.41
2022-11-29T04:02:09.918Z,101291.34
2022-11-29T04:05:29.525Z,101284.59
2022-11-29T04:08:27.167Z,101282.81
2022-11-29T04:11:36.633Z,101287.06
2022-11-29T04:14:31.824Z,101278.25
2022-11-29T04:17:51.899Z,101283.56
2022-11-29T04:21:04.771Z,101289.63
2022-11-29T04:23:58.817Z,101290.00
2022-11-29T04:27:00.249Z,101292.16
2022-11-29T04:29:54.742Z,101291.06
2022-11-29T04:32:45.300Z,101289.22
2022-11-29T04:35:31.635Z,101292.41
2022-11-29T04:38:19.285Z,101297.00
2022-11-29T04:41:25.106Z,101287.34
2022-11-29T04:44:13.447Z,101297.41
2022-11-29T04:46:59.152Z,101300.97
2022-11-29T04:49:58.401Z,101306.63
2022-11-29T04:52:42.725Z,101308.63
2022-11-29T04:55:29.266Z,101304.66
2022-11-29T04:58:01.599Z,101307.19
2022-11-29T05:00:26.449Z,101299.72
2022-11-29T05:02:56.930Z,101304.44
2022-11-29T05:05:32.553Z,101305.78
2022-11-29T05:08:13.373Z,101303.59
2022-11-29T05:10:46.287Z,101308.22
2022-11-29T05:13:16.726Z,101305.34
2022-11-29T05:16:08.671Z,101312.31
2022-11-29T05:18:59.068Z,101315.38
2022-11-29T05:21:38.045Z,101325.16
2022-11-29T05:24:21.173Z,101325.41
2022-11-29T05:26:52.829Z,101322.56
2022-11-29T05:29:23.112Z,101323.47
2022-11-29T05:31:57.834Z,101333.13
2022-11-29T05:34:45.608Z,101329.63
2022-11-29T05:37:26.687Z,101343.72
2022-11-29T05:40:26.698Z,101342.63
2022-11-29T05:43:14.439Z,101344.44
2022-11-29T05:45:44.484Z,101338.53
2022-11-29T05:48:18.747Z,101344.97
2022-11-29T05:50:48.683Z,101349.56
2022-11-29T05:53:22.732Z,101352.53
2022-11-29T05:56:00.578Z,101362.34
2022-11-29T05:58:36.541Z,101355.72
2022-11-29T06:01:06.689Z,101353.78
2022-11-29T06:03:37.815Z,101360.34
2022-11-29T06:06:08.437Z,101355.66
2022-11-29T06:08:41.116Z,101360.53
2022-11-29T06:11:14.748Z,101364.16
2022-11-29T06:13:59.295Z,101373.09
2022-11-29T06:16:42.748Z,101374.38
2022-11-29T06:19:59.551Z,101373.09
2022-11-29T06:22:45.127Z,101383.75
2022-11-29T06:25:36.145Z,101385.88
2022-11-29T06:28:31.018Z,101386.75
2022-11-29T06:31:03.535Z,101381.72
2022-11-29T06:33:35.247Z,101386.44
2022-11-29T06:36:18.082Z,101395.34
2022-11-29T06:38:42.317Z,101393.31
2022-11-29T06:41:08.015Z,101391.47
2022-11-29T06:43:34.281Z,101401.19
2022-11-29T06:46:11.518Z,101398.97
2022-11-29T06:48:42.607Z,101399.69
2022-11-29T06:51:14.010Z,101404.72
2022-11-29T06:53:45.045Z,101411.28
2022-11-29T06:56:20.871Z,101408.09
2022-11-29T06:58:58.523Z,101409.16
2022-11-29T07:01:31.345Z,101409.75
2022-11-29T07:04:13.167Z,101417.75
2022-11-29T07:06:37.764Z,101417.09
2022-11-29T07:09:06.893Z,101420.03
2022-11-29T07:11:31.463Z,101417.09
2022-11-29T07:13:57.277Z,101421.53
2022-11-29T07:16:28.188Z,101426.78
2022-11-29T07:19:03.678Z,101422.69
2022-11-29T07:21:44.306Z,101422.25
2022-11-29T07:24:21.601Z,101420.56
2022-11-29T07:26:59.308Z,101421.19
2022-11-29T07:29:35.803Z,101431.88
2022-11-29T07:32:11.337Z,101434.72
2022-11-29T07:34:44.401Z,101436.72
2022-11-29T07:37:16.831Z,101440.16
2022-11-29T07:39:52.209Z,101441.03
2022-11-29T07:42:23.807Z,101439.59
2022-11-29T07:45:00.741Z,101444.00
2022-11-29T07:47:24.397Z,101440.22
2022-11-29T07:49:47.999Z,101442.41
2022-11-29T07:52:13.809Z,101451.41
2022-11-29T07:54:37.379Z,101451.97
2022-11-29T07:57:01.147Z,101454.63
2022-11-29T07:59:24.779Z,101458.16
2022-11-29T08:01:49.915Z,101455.66
2022-11-29T08:04:14.009Z,101459.25
2022-11-29T08:06:38.051Z,101454.72
2022-11-29T08:09:02.134Z,101459.75
2022-11-29T08:11:26.125Z,101461.91
2022-11-29T08:13:49.638Z,101462.06
2022-11-29T08:16:18.686Z,101458.25
2022-11-29T08:18:43.648Z,101465.38
2022-11-29T08:21:08.460Z,101469.75
2022-11-29T08:23:31.997Z,101467.75
2022-11-29T08:26:01.081Z,101469.47
2022-11-29T08:28:24.649Z,101470.28
2022-11-29T08:30:48.197Z,101479.53
2022-11-29T08:33:11.829Z,101472.22
2022-11-29T08:35:36.941Z,101475.22
2022-11-29T08:38:00.502Z,101474.72
2022-11-29T08:40:24.995Z,101475.53
2022-11-29T08:42:48.537Z,101482.59
2022-11-29T08:45:13.214Z,101475.09
2022-11-29T08:47:37.166Z,101485.97
2022-11-29T08:50:03.303Z,101477.69
2022-11-29T08:52:45.685Z,101466.72
2022-11-29T08:55:10.336Z,101478.59
2022-11-29T08:57:41.367Z,101481.06
2022-11-29T09:00:07.653Z,101476.97
2022-11-29T09:02:31.236Z,101477.53
2022-11-29T09:04:54.853Z,101481.84
2022-11-29T09:07:18.417Z,101483.00
2022-11-29T09:09:43.406Z,101487.81
2022-11-29T09:12:08.758Z,101480.97
2022-11-29T09:14:32.325Z,101483.13
2022-11-29T09:16:55.859Z,101484.06
2022-11-29T09:19:19.663Z,101493.84
2022-11-29T09:21:43.209Z,101492.81
2022-11-29T09:24:09.274Z,101497.00
2022-11-29T09:26:37.897Z,101498.97
2022-11-29T09:29:02.887Z,101498.06
2022-11-29T09:31:27.603Z,101498.50
2022-11-29T09:33:51.250Z,101501.88
2022-11-29T09:36:14.983Z,101496.81
2022-11-29T09:38:39.317Z,101496.56
2022-11-29T09:41:09.875Z,101500.56
2022-11-29T09:43:44.617Z,101501.16
2022-11-29T09:46:19.053Z,101505.28
2022-11-29T09:49:00.538Z,101498.78
2022-11-29T09:51:29.657Z,101502.63
2022-11-29T09:54:15.968Z,101500.19
2022-11-29T09:56:44.032Z,101506.06
2022-11-29T09:59:14.684Z,101497.84
2022-11-29T10:01:42.562Z,101498.41
2022-11-29T10:04:12.207Z,101504.03
2022-11-29T10:06:43.256Z,101506.94
2022-11-29T10:09:16.592Z,101505.34
2022-11-29T10:11:54.457Z,101508.16
2022-11-29T10:14:25.683Z,101511.50
2022-11-29T10:16:54.385Z,101511.97
2022-11-29T10:19:25.464Z,101507.72
2022-11-29T10:21:59.153Z,101511.72
2022-11-29T10:24:24.998Z,101516.41
2022-11-29T10:26:48.635Z,101514.94
2022-11-29T10:29:15.858Z,101513.34
2022-11-29T10:31:44.163Z,101514.63
2022-11-29T10:34:16.054Z,101510.88
2022-11-29T10:36:45.525Z,101513.44
2022-11-29T10:39:18.349Z,101525.84
2022-11-29T10:41:41.959Z,101525.25
2022-11-29T10:44:05.676Z,101523.84
2022-11-29T10:46:33.577Z,101528.84
2022-11-29T10:49:02.129Z,101524.03
2022-11-29T10:51:25.944Z,101535.50
2022-11-29T10:53:51.079Z,101523.03
2022-11-29T10:56:24.174Z,101523.66
2022-11-29T10:58:58.530Z,101523.34
2022-11-29T11:01:22.480Z,101524.97
2022-11-29T11:03:53.616Z,101524.44
2022-11-29T11:06:21.342Z,101520.53
2022-11-29T11:08:47.623Z,101522.56
2022-11-29T11:11:11.899Z,101514.94
2022-11-29T11:13:36.783Z,101525.00
2022-11-29T11:16:18.155Z,101525.63
2022-11-29T11:18:41.841Z,101522.19
2022-11-29T11:21:09.529Z,101514.16
2022-11-29T11:23:42.335Z,101514.47
2022-11-29T11:26:09.751Z,101512.28
2022-11-29T11:28:43.181Z,101516.69
2022-11-29T11:31:10.265Z,101523.66
2022-11-29T11:33:36.046Z,101528.13
2022-11-29T11:36:23.975Z,101526.41
2022-11-29T11:38:54.724Z,101526.19
2022-11-29T11:41:23.873Z,101529.69
2022-11-29T11:44:00.313Z,101534.25
2022-11-29T11:46:24.133Z,101534.75
2022-11-29T11:48:48.227Z,101540.19
2022-11-29T11:51:24.116Z,101534.56
2022-11-29T11:53:55.775Z,101533.16
2022-11-29T11:56:19.930Z,101538.81
2022-11-29T11:58:51.937Z,101539.59
2022-11-29T12:01:24.725Z,101536.91
2022-11-29T12:03:58.082Z,101536.44
2022-11-29T12:06:31.197Z,101536.28
2022-11-29T12:09:04.037Z,101536.41
2022-11-29T12:11:28.554Z,101537.69
2022-11-29T12:13:57.688Z,101530.50
2022-11-29T12:16:28.670Z,101540.78
2022-11-29T12:18:55.716Z,101539.44
2022-11-29T12:21:24.791Z,101538.06
2022-11-29T12:23:54.521Z,101549.16
2022-11-29T12:26:55.452Z,101550.66
2022-11-29T12:29:15.298Z,101548.06
2022-11-29T12:31:57.735Z,101548.94
2022-11-29T12:34:41.280Z,101557.44
2022-11-29T12:37:16.684Z,101554.28
2022-11-29T12:39:59.116Z,101556.16
2022-11-29T12:42:39.536Z,101558.59
2022-11-29T12:45:19.700Z,101558.75
2022-11-29T12:47:56.584Z,101563.31
2022-11-29T12:50:34.717Z,101563.25
2022-11-29T12:53:15.789Z,101565.94
2022-11-29T12:55:50.892Z,101567.56
2022-11-29T12:58:24.460Z,101565.63
2022-11-29T13:00:56.779Z,101571.53
2022-11-29T13:03:29.601Z,101577.41
2022-11-29T13:06:07.649Z,101582.78
2022-11-29T13:08:58.666Z,101584.47
2022-11-29T13:11:26.617Z,101581.19
2022-11-29T13:14:08.253Z,101587.59
2022-11-29T13:16:53.283Z,101580.19
2022-11-29T13:19:24.588Z,101579.84
2022-11-29T13:22:00.779Z,101584.91
2022-11-29T13:24:30.399Z,101578.69
2022-11-29T13:26:55.455Z,101595.41
2022-11-29T13:29:20.531Z,101589.44
2022-11-29T13:31:45.452Z,101586.16
2022-11-29T13:34:14.362Z,101594.50
2022-11-29T13:36:52.991Z,101590.72
2022-11-29T13:39:33.251Z,101592.47
2022-11-29T13:42:06.660Z,101593.13
2022-11-29T13:44:39.190Z,101602.34
2022-11-29T13:47:07.877Z,101594.00
2022-11-29T13:49:58.112Z,101602.66
2022-11-29T13:52:40.966Z,101597.56
2022-11-29T13:55:29.172Z,101601.22
2022-11-29T14:00:51.621Z,101597.50
2022-11-29T14:03:40.147Z,101610.34
2022-11-29T14:06:22.313Z,101603.66
2022-11-29T14:09:31.996Z,101605.41
2022-11-29T14:12:07.033Z,101600.28
2022-11-29T14:14:38.513Z,101602.72
2022-11-29T14:17:05.384Z,101613.84
2022-11-29T14:19:33.806Z,101605.53
2022-11-29T14:22:33.357Z,101616.44
2022-11-29T14:25:01.401Z,101619.69
2022-11-29T14:27:52.110Z,101619.22
2022-11-29T14:30:48.871Z,101613.09
2022-11-29T14:33:42.559Z,101620.22
2022-11-29T14:36:26.798Z,101623.09
2022-11-29T14:39:04.076Z,101620.25
2022-11-29T14:41:44.279Z,101627.03
2022-11-29T14:44:18.603Z,101623.06
2022-11-29T14:46:42.343Z,101629.00
2022-11-29T14:49:07.395Z,101633.19
2022-11-29T14:51:33.516Z,101628.00
2022-11-29T14:54:09.272Z,101626.88
2022-11-29T14:56:42.620Z,101634.03
2022-11-29T14:59:44.789Z,101627.59
2022-11-29T15:02:26.174Z,101633.72
2022-11-29T15:04:53.752Z,101640.66
2022-11-29T15:07:21.237Z,101639.69
2022-11-29T15:09:45.471Z,101640.09
2022-11-29T15:12:14.058Z,101644.97
2022-11-29T15:14:49.696Z,101648.47
2022-11-29T15:17:25.960Z,101645.09
2022-11-29T15:20:37.516Z,101647.41
2022-11-29T15:23:07.335Z,101645.91
2022-11-29T15:25:33.166Z,101654.78
2022-11-29T15:27:58.477Z,101648.78
2022-11-29T15:30:39.068Z,101651.81
2022-11-29T15:33:05.908Z,101656.00
2022-11-29T15:35:30.204Z,101658.22
2022-11-29T15:37:54.902Z,101666.44
2022-11-29T15:40:22.810Z,101669.53
2022-11-29T15:42:50.878Z,101669.25
2022-11-29T15:45:33.534Z,101669.31
2022-11-29T15:48:12.627Z,101665.22
2022-11-29T15:50:36.549Z,101670.84
2022-11-29T15:53:06.920Z,101677.63
2022-11-29T15:55:32.599Z,101674.88
2022-11-29T15:58:02.634Z,101682.06
2022-11-29T16:00:31.477Z,101678.47
2022-11-29T16:02:59.642Z,101689.00
2022-11-29T16:05:27.258Z,101685.25
2022-11-29T16:07:54.625Z,101696.78
2022-11-29T16:10:22.262Z,101696.56
2022-11-29T16:12:57.792Z,101695.19
2022-11-29T16:15:31.263Z,101693.53
2022-11-29T16:17:54.915Z,101693.19
2022-11-29T16:20:26.992Z,101700.38
2022-11-29T16:23:05.572Z,101711.09
2022-11-29T16:25:33.286Z,101703.56
2022-11-29T16:28:01.442Z,101703.91
2022-11-29T16:30:27.981Z,101712.34
2022-11-29T16:32:56.373Z,101715.44
2022-11-29T16:35:24.439Z,101712.09
2022-11-29T16:37:48.743Z,101715.88
2022-11-29T16:40:24.676Z,101714.78
2022-11-29T16:43:19.658Z,101712.78
2022-11-29T16:45:44.325Z,101720.28
2022-11-29T16:48:31.799Z,101723.88
2022-11-29T16:51:20.412Z,101723.50
2022-11-29T16:53:47.759Z,101721.94
2022-11-29T16:56:13.972Z,101720.56
2022-11-29T16:59:16.653Z,101722.88
2022-11-29T17:01:27.305Z,101718.34
2022-11-29T17:03:51.737Z,101724.31
2022-11-29T17:06:16.751Z,101722.56
2022-11-29T17:08:40.277Z,101732.84
2022-11-29T17:11:03.826Z,101732.69
2022-11-29T17:13:27.370Z,101730.44
2022-11-29T17:15:52.361Z,101733.34
2022-11-29T17:18:15.854Z,101729.72
2022-11-29T17:20:39.526Z,101726.88
2022-11-29T17:23:03.019Z,101727.59
2022-11-29T17:25:26.623Z,101731.22
2022-11-29T17:27:50.289Z,101734.09
2022-11-29T17:30:15.237Z,101732.09
2022-11-29T17:32:40.129Z,101737.06
2022-11-29T17:35:03.920Z,101740.22
2022-11-29T17:37:27.487Z,101745.19
2022-11-29T17:39:51.078Z,101734.44
2022-11-29T17:42:14.699Z,101736.03
2022-11-29T17:44:38.432Z,101744.44
2022-11-29T17:47:01.956Z,101746.75
2022-11-29T17:49:27.296Z,101744.16
2022-11-29T17:51:52.670Z,101741.53
2022-11-29T17:54:16.497Z,101750.44
2022-11-29T17:56:40.170Z,101752.78
2022-11-29T17:59:05.253Z,101748.88
2022-11-29T18:01:31.287Z,101747.06
2022-11-29T18:03:57.130Z,101751.63
2022-11-29T18:06:24.048Z,101749.84
2022-11-29T18:08:50.011Z,101755.94
2022-11-29T18:11:15.750Z,101752.31
2022-11-29T18:13:39.920Z,101760.88
2022-11-29T18:16:06.805Z,101758.44
2022-11-29T18:18:30.355Z,101755.72
2022-11-29T18:20:58.629Z,101765.22
2022-11-29T18:23:23.620Z,101762.91
2022-11-29T18:25:58.330Z,101771.72
2022-11-29T18:28:21.873Z,101766.66
2022-11-29T18:30:45.385Z,101767.13
2022-11-29T18:33:09.110Z,101776.81
2022-11-29T18:35:32.592Z,101770.44
2022-11-29T18:38:14.742Z,101774.75
2022-11-29T18:40:42.092Z,101767.59
2022-11-29T18:43:05.609Z,101779.75
2022-11-29T18:45:29.158Z,101779.69
2022-11-29T18:47:52.677Z,101776.63
2022-11-29T18:50:16.461Z,101777.38
2022-11-29T18:52:40.899Z,101780.19
2022-11-29T18:55:04.808Z,101779.47
2022-11-29T18:57:29.677Z,101778.28
2022-11-29T18:59:53.277Z,101783.00
2022-11-29T19:02:20.000Z,101784.75
2022-11-29T19:04:43.970Z,101784.47
2022-11-29T19:07:07.698Z,101783.94
2022-11-29T19:09:31.316Z,101779.28
2022-11-29T19:11:54.829Z,101784.31
2022-11-29T19:14:20.408Z,101779.78
2022-11-29T19:16:46.430Z,101792.41
2022-11-29T19:19:10.171Z,101783.38
2022-11-29T19:21:35.373Z,101786.56
2022-11-29T19:24:01.446Z,101786.69
2022-11-29T19:26:28.665Z,101784.59
2022-11-29T19:28:52.433Z,101787.53
2022-11-29T19:31:20.066Z,101789.19
2022-11-29T19:33:45.338Z,101797.44
2022-11-29T19:36:12.195Z,101791.47
2022-11-29T19:38:37.412Z,101793.94
2022-11-29T19:41:01.370Z,101790.81
2022-11-29T19:43:24.993Z,101788.19
2022-11-29T19:45:48.613Z,101793.03
2022-11-29T19:48:13.611Z,101785.44
2022-11-29T19:50:37.189Z,101792.41
2022-11-29T19:53:00.736Z,101788.19
2022-11-29T19:55:24.276Z,101793.41
2022-11-29T19:57:47.913Z,101792.72
2022-11-29T20:00:13.516Z,101794.38
2022-11-29T20:02:37.805Z,101796.25
2022-11-29T20:05:02.719Z,101795.31
2022-11-29T20:07:26.349Z,101793.06
2022-11-29T20:09:49.963Z,101796.75
2022-11-29T20:12:13.545Z,101801.16
2022-11-29T20:14:37.094Z,101800.53
2022-11-29T20:17:00.659Z,101816.59
2022-11-29T20:19:24.214Z,101810.91
2022-11-29T20:21:50.260Z,101810.38
2022-11-29T20:24:15.270Z,101810.28
2022-11-29T20:26:41.509Z,101816.75
2022-11-29T20:29:05.861Z,101813.31
2022-11-29T20:31:30.569Z,101823.53
2022-11-29T20:33:57.302Z,101814.16
2022-11-29T20:36:38.963Z,101818.44
2022-11-29T20:39:16.897Z,101820.06
2022-11-29T20:41:49.748Z,101818.19
2022-11-29T20:44:21.771Z,101815.19
2022-11-29T20:46:45.808Z,101819.66
2022-11-29T20:49:10.539Z,101818.94
2022-11-29T20:51:42.331Z,101825.13
2022-11-29T20:54:07.385Z,101823.47
2022-11-29T20:56:30.953Z,101832.06
2022-11-29T20:58:54.571Z,101827.00
2022-11-29T21:01:18.132Z,101829.13
2022-11-29T21:03:41.783Z,101829.88
2022-11-29T21:06:07.346Z,101835.53
2022-11-29T21:08:32.872Z,101835.41
2022-11-29T21:11:04.233Z,101833.78
2022-11-29T21:13:28.450Z,101842.88
2022-11-29T21:15:52.737Z,101839.19
2022-11-29T21:18:24.002Z,101836.59
2022-11-29T21:20:54.845Z,101841.97
2022-11-29T21:23:29.872Z,101844.19
2022-11-29T21:26:03.612Z,101841.47
2022-11-29T21:28:35.771Z,101846.78
2022-11-29T21:31:00.176Z,101843.88
2022-11-29T21:33:24.376Z,101847.09
2022-11-29T21:35:48.858Z,101850.97
2022-11-29T21:38:24.592Z,101846.44
2022-11-29T21:40:48.166Z,101845.59
2022-11-29T21:43:13.062Z,101851.63
2022-11-29T21:45:36.635Z,101845.78
2022-11-29T21:48:01.693Z,101845.78
2022-11-29T21:50:25.300Z,101852.06
2022-11-29T21:52:52.432Z,101851.13
2022-11-29T21:55:16.150Z,101859.06
2022-11-29T21:57:39.885Z,101852.44
2022-11-29T22:00:05.794Z,101861.06
2022-11-29T22:02:29.420Z,101865.88
2022-11-29T22:04:53.049Z,101865.84
2022-11-29T22:07:16.598Z,101865.84
2022-11-29T22:09:40.257Z,101854.75
2022-11-29T22:12:19.528Z,101859.97
2022-11-29T22:14:47.577Z,101858.44
2022-11-29T22:17:12.639Z,101868.03
2022-11-29T22:19:37.366Z,101869.69
2022-11-29T22:22:02.865Z,101865.50
2022-11-29T22:24:29.327Z,101863.31
2022-11-29T22:26:53.953Z,101866.41
2022-11-29T22:29:18.177Z,101857.00
2022-11-29T22:31:42.552Z,101863.72
2022-11-29T22:34:07.671Z,101862.81
2022-11-29T22:36:31.242Z,101870.53
2022-11-29T22:38:56.846Z,101877.91
2022-11-29T22:41:20.497Z,101877.78
2022-11-29T22:43:44.531Z,101868.31
2022-11-29T22:46:12.391Z,101866.56
2022-11-29T22:48:38.908Z,101874.38
2022-11-29T22:51:09.739Z,101866.22
2022-11-29T22:53:33.447Z,101873.31
2022-11-29T22:56:00.067Z,101882.00
2022-11-29T22:58:23.622Z,101878.97
2022-11-29T23:00:47.251Z,101884.16
2022-11-29T23:03:10.856Z,101876.53
2022-11-29T23:05:34.862Z,101880.44
2022-11-29T23:07:59.866Z,101881.19
2022-11-29T23:10:23.410Z,101886.69
2022-11-29T23:12:47.498Z,101885.63
2022-11-29T23:15:11.823Z,101889.75
2022-11-29T23:17:35.418Z,101894.63
2022-11-29T23:19:58.896Z,101892.22
2022-11-29T23:22:22.439Z,101887.84
2022-11-29T23:24:47.418Z,101893.47
2022-11-29T23:27:11.711Z,101883.69
2022-11-29T23:29:35.193Z,101889.56
2022-11-29T23:31:58.893Z,101880.44
2022-11-29T23:34:22.444Z,101874.84
2022-11-29T23:36:52.370Z,101878.56
2022-11-29T23:39:16.682Z,101875.44
2022-11-29T23:41:41.568Z,101876.22
2022-11-29T23:44:06.358Z,101874.50
2022-11-29T23:46:29.879Z,101873.19
2022-11-29T23:48:53.802Z,101875.97
2022-11-29T23:51:18.505Z,101873.03
2022-11-29T23:53:42.564Z,101871.25
2022-11-29T23:56:08.940Z,101875.34
2022-11-29T23:58:34.852Z,101878.44
